Marco Polo — C6JZ7 — position and weather

sailwx.info

Track history (hours):
 
Tides and Currents Weather Stations Pressure Air Temp Water Temp Dewpoint Dewpoint Depression Visibility Wind Speed Wind Dir Waves Ship Positions

Marco Polo

Operator: Orient Lines

Last reported at 2017-Jun-19 00:19 UTC. Time now 2017-Jun-26 17:18 UTC.
Position N 59°20' W 004°00'.

Type: Ship. MMSI: 308691456.

Date/timePositionNaut miles runAvg speedWind from/ knotsBaromVisibWave heightAir tempDewpointWater temp
2017-Jun-19 00:19N 59°20' W 004°00'516.0
2017-Jun-19 00:00N 59°16' W 003°56'816.2
2017-Jun-18 23:30N 59°09' W 003°48'816.3
2017-Jun-18 23:00N 59°01' W 003°41'816.4
2017-Jun-18 22:30N 58°54' W 003°34'816.7
2017-Jun-18 22:00N 58°47' W 003°25'917.9
2017-Jun-18 21:30N 58°43' W 003°10'918.3
2017-Jun-18 21:00N 58°37' W 002°56'5416.3
2017-Jun-18 17:40N 57°53' W 001°58'316.3
2017-Jun-18 17:30N 57°50' W 001°55'815.6
2017-Jun-18 17:00N 57°44' W 001°48'815.6
2017-Jun-18 16:30N 57°37' W 001°41'816.0
2017-Jun-18 16:00N 57°29' W 001°36'816.6
2017-Jun-18 15:30N 57°21' W 001°31'816.5
2017-Jun-18 15:00N 57°13' W 001°27'6817.1
2017-Jun-18 11:01N 56°08' W 000°53'3916.4
2017-Jun-18 08:38N 55°30' W 000°33'916.1
2017-Jun-18 08:05N 55°22' W 000°29'116.1
2017-Jun-18 08:00N 55°21' W 000°29'816.2
2017-Jun-18 07:30N 55°13' W 000°25'1716.3
2017-Jun-18 06:26N 54°56' W 000°16'716.5
2017-Jun-18 06:00N 54°49' W 000°13'816.6
2017-Jun-18 05:30N 54°41' W 000°09'816.9
2017-Jun-18 05:00N 54°33' W 000°04'917.1
2017-Jun-18 04:30N 54°25' W 000°01'917.3
2017-Jun-18 04:00N 54°17' E 000°03'917.3
2017-Jun-18 03:30N 54°08' E 000°07'917.2
2017-Jun-18 03:00N 54°00' E 000°12'917.1
2017-Jun-18 02:30N 53°52' E 000°17'1317.2
2017-Jun-18 01:45N 53°39' E 000°22'416.3
2017-Jun-18 01:30N 53°36' E 000°19'611.6
2017-Jun-18 00:59N 53°33' E 000°11'613.4
2017-Jun-18 00:30N 53°35' E 000°01'713.1
2017-Jun-18 00:00N 53°38' W 000°09'510.8
2017-Jun-17 23:31N 53°42' W 000°14'2 4.8
2017-Jun-17 23:00N 53°44' W 000°16'0 0.0
2017-Jun-17 22:30N 53°44' W 000°16'0 0.2
2017-Jun-17 22:00N 53°45' W 000°16'0 0.4
2017-Jun-17 21:30N 53°45' W 000°16'0 0.0
2017-Jun-17 21:00N 53°45' W 000°16'0 0.0
2017-Jun-17 20:30N 53°45' W 000°16'0 0.0
2017-Jun-17 20:00N 53°45' W 000°16'0 0.0
2017-Jun-17 19:30N 53°45' W 000°16'0 0.0
2017-Jun-17 19:00N 53°45' W 000°16'0 0.0
2017-Jun-17 18:27N 53°45' W 000°16'0 0.0
2017-Jun-17 18:00N 53°45' W 000°16'0 0.0
2017-Jun-17 17:30N 53°45' W 000°16'0 0.0
2017-Jun-17 17:00N 53°45' W 000°16'0 0.0
2017-Jun-17 16:30N 53°45' W 000°16'0 0.0
2017-Jun-17 16:00N 53°45' W 000°16'0 0.0
2017-Jun-17 15:30N 53°45' W 000°16'0 0.0
2017-Jun-17 15:00N 53°45' W 000°16'0 0.0
2017-Jun-17 14:30N 53°45' W 000°16'0 0.0
2017-Jun-17 13:30N 53°45' W 000°16'0 0.0
2017-Jun-17 13:00N 53°45' W 000°16'0 0.0
2017-Jun-17 12:30N 53°45' W 000°16'0 0.0
2017-Jun-17 12:00N 53°45' W 000°16'0 0.4
2017-Jun-17 11:30N 53°45' W 000°16'0 0.2
2017-Jun-17 11:00N 53°44' W 000°16'0 0.3
2017-Jun-17 10:30N 53°44' W 000°16'1 1.7
2017-Jun-17 10:00N 53°44' W 000°16'3 5.2
2017-Jun-17 09:30N 53°41' W 000°14'4 7.0
2017-Jun-17 09:00N 53°38' W 000°11'510.5
2017-Jun-17 08:30N 53°37' W 000°02'43 9.4
2017-Jun-17 03:55N 54°10' E 000°45'25910.8
2017-Jun-16 03:59N 58°13' E 003°29'10013.8
2017-Jun-15 20:44N 59°46' E 004°37'313.4
2017-Jun-15 20:30N 59°49' E 004°40'713.4
2017-Jun-15 19:59N 59°56' E 004°46'713.4
2017-Jun-15 19:30N 60°01' E 004°51'713.5
2017-Jun-15 19:00N 60°08' E 004°57'612.2
2017-Jun-15 18:29N 60°10' E 005°08'612.1
2017-Jun-15 18:00N 60°16' E 005°10'612.1
2017-Jun-15 17:30N 60°22' E 005°10'5 9.3
2017-Jun-15 17:00N 60°24' E 005°18'0 0.4
2017-Jun-15 16:28N 60°24' E 005°19'0 0.0
2017-Jun-15 15:58N 60°24' E 005°19'0 0.0
2017-Jun-15 15:28N 60°24' E 005°19'0 0.0
2017-Jun-15 14:58N 60°24' E 005°19'0 0.0
2017-Jun-15 14:28N 60°24' E 005°19'0 0.0
2017-Jun-15 13:28N 60°24' E 005°19'0 0.0
2017-Jun-15 12:58N 60°24' E 005°19'0 0.0
2017-Jun-15 12:28N 60°24' E 005°19'0 0.0
2017-Jun-15 11:58N 60°24' E 005°19'0 0.0
2017-Jun-15 11:28N 60°24' E 005°19'0 0.0
2017-Jun-15 10:58N 60°24' E 005°19'0 0.0
2017-Jun-15 10:28N 60°24' E 005°19'0 0.0
2017-Jun-15 09:58N 60°24' E 005°19'0 0.0
2017-Jun-15 09:25N 60°24' E 005°19'0 0.0
2017-Jun-15 08:58N 60°24' E 005°19'0 0.0
2017-Jun-15 08:28N 60°24' E 005°19'0 0.0
2017-Jun-15 07:58N 60°24' E 005°19'0 0.0
2017-Jun-15 07:28N 60°24' E 005°19'0 0.7
2017-Jun-15 07:00N 60°24' E 005°18'5 9.1
2017-Jun-15 06:30N 60°24' E 005°09'713.3
2017-Jun-15 06:00N 60°28' E 004°59'714.4
2017-Jun-15 05:30N 60°35' E 004°54'714.4
2017-Jun-15 05:00N 60°42' E 004°49'714.5
2017-Jun-15 04:30N 60°49' E 004°43'714.5
2017-Jun-15 04:00N 60°55' E 004°36'714.0
2017-Jun-15 03:29N 61°01' E 004°28'713.5
2017-Jun-15 02:59N 61°07' E 004°23'713.7
2017-Jun-15 02:30N 61°14' E 004°22'714.1
2017-Jun-15 02:00N 61°21' E 004°22'714.7
2017-Jun-15 01:30N 61°28' E 004°23'715.0
2017-Jun-15 01:00N 61°36' E 004°24'815.8
2017-Jun-15 00:28N 61°44' E 004°28'816.0
2017-Jun-15 00:00N 61°51' E 004°34'815.6
2017-Jun-14 23:30N 61°58' E 004°39'815.8
2017-Jun-14 23:00N 62°05' E 004°46'815.7
2017-Jun-14 22:30N 62°12' E 004°55'815.8
2017-Jun-14 22:00N 62°18' E 005°06'815.7
2017-Jun-14 21:30N 62°24' E 005°17'815.9
2017-Jun-14 21:00N 62°28' E 005°32'714.9
2017-Jun-14 20:30N 62°29' E 005°48'714.5
2017-Jun-14 20:00N 62°28' E 006°04'611.3
2017-Jun-14 19:30N 62°33' E 006°09'611.4
2017-Jun-14 19:00N 62°39' E 006°10'714.0
2017-Jun-14 18:29N 62°38' E 006°25'815.5
2017-Jun-14 18:00N 62°39' E 006°41'816.5
2017-Jun-14 17:30N 62°42' E 006°58'816.4
2017-Jun-14 17:00N 62°38' E 007°15'1214.2
2017-Jun-14 16:07N 62°34' E 007°40'1 0.1
2017-Jun-14 06:11N 62°34' E 007°42'8 7.2
2017-Jun-14 05:04N 62°36' E 007°24'116.3
2017-Jun-14 05:00N 62°36' E 007°23'816.3
2017-Jun-14 04:30N 62°41' E 007°08'3 6.2
2017-Jun-14 04:00N 62°43' E 007°04'2 4.4
2017-Jun-14 03:30N 62°42' E 007°00'713.5
2017-Jun-14 03:00N 62°40' E 006°46'714.8
2017-Jun-14 02:29N 62°38' E 006°30'714.3
2017-Jun-14 02:00N 62°37' E 006°15'612.4
2017-Jun-14 01:30N 62°38' E 006°01'612.4
2017-Jun-14 01:00N 62°35' E 005°49'713.8
2017-Jun-14 00:30N 62°30' E 005°38'714.3
2017-Jun-14 00:00N 62°27' E 005°25'714.5
2017-Jun-13 23:30N 62°22' E 005°13'714.7
2017-Jun-13 23:00N 62°17' E 005°02'714.4
2017-Jun-13 22:29N 62°10' E 004°55'714.3
2017-Jun-13 21:59N 62°04' E 004°48'613.2
2017-Jun-13 21:30N 61°58' E 004°55'713.6
2017-Jun-13 21:00N 61°55' E 005°07'712.9
2017-Jun-13 20:29N 61°54' E 005°21'613.2
2017-Jun-13 20:00N 61°55' E 005°35'713.4
2017-Jun-13 19:28N 61°51' E 005°48'0 0.0
2017-Jun-13 03:56N 61°51' E 005°48'612.7
2017-Jun-13 03:30N 61°54' E 005°38'613.0
2017-Jun-13 03:00N 61°55' E 005°25'712.8
2017-Jun-13 02:30N 61°53' E 005°11'4 7.1
2017-Jun-13 02:00N 61°51' E 005°16'611.4
2017-Jun-13 01:30N 61°48' E 005°05'612.6
2017-Jun-13 01:00N 61°44' E 004°55'612.3
2017-Jun-13 00:30N 61°38' E 004°59'5 9.2
2017-Jun-13 00:00N 61°33' E 005°00'612.4
2017-Jun-12 23:30N 61°27' E 004°56'714.3
2017-Jun-12 23:00N 61°21' E 004°48'613.0
2017-Jun-12 22:30N 61°15' E 004°53'713.9
2017-Jun-12 22:00N 61°10' E 005°03'714.0
2017-Jun-12 21:30N 61°06' E 005°14'613.2
2017-Jun-12 21:00N 61°04' E 005°27'713.8
2017-Jun-12 20:30N 61°07' E 005°40'713.3
2017-Jun-12 20:00N 61°08' E 005°53'713.3
2017-Jun-12 19:30N 61°08' E 006°07'713.0
2017-Jun-12 19:00N 61°06' E 006°20'612.3
2017-Jun-12 18:30N 61°08' E 006°33'611.5
2017-Jun-12 18:00N 61°10' E 006°43'713.4
2017-Jun-12 17:30N 61°07' E 006°56'612.8
2017-Jun-12 17:00N 61°01' E 007°02'612.1
2017-Jun-12 16:30N 60°56' E 007°09'5 9.4
2017-Jun-12 15:59N 60°52' E 007°07'0 0.0
2017-Jun-12 15:28N 60°52' E 007°07'0 0.0
2017-Jun-12 14:58N 60°52' E 007°07'0 0.0
2017-Jun-12 13:58N 60°52' E 007°07'0 0.0
2017-Jun-12 13:28N 60°52' E 007°07'0 0.0
2017-Jun-12 12:58N 60°52' E 007°07'0 0.0
2017-Jun-12 12:28N 60°52' E 007°07'0 0.0
2017-Jun-12 11:58N 60°52' E 007°07'0 0.0
2017-Jun-12 11:28N 60°52' E 007°07'0 0.0
2017-Jun-12 10:58N 60°52' E 007°07'0 0.0
2017-Jun-12 10:28N 60°52' E 007°07'0 0.0
2017-Jun-12 09:58N 60°52' E 007°07'0 0.0
2017-Jun-12 09:28N 60°52' E 007°07'0 0.0
2017-Jun-12 08:58N 60°52' E 007°07'0 0.0
2017-Jun-12 08:28N 60°52' E 007°07'0 0.0
2017-Jun-12 07:58N 60°52' E 007°07'0 0.0
2017-Jun-12 07:28N 60°52' E 007°07'0 0.0
2017-Jun-12 06:58N 60°52' E 007°07'0 0.1
2017-Jun-12 06:30N 60°52' E 007°07'1 2.2
2017-Jun-12 06:00N 60°53' E 007°08'4 8.4
2017-Jun-12 05:30N 60°57' E 007°08'611.8
2017-Jun-12 05:00N 61°02' E 007°02'612.7
2017-Jun-12 04:30N 61°07' E 006°54'712.8
2017-Jun-12 03:59N 61°10' E 006°42'510.8
2017-Jun-12 03:30N 61°08' E 006°33'612.5
2017-Jun-12 03:01N 61°06' E 006°20'713.9
2017-Jun-12 02:30N 61°08' E 006°06'714.7
2017-Jun-12 02:00N 61°08' E 005°51'714.5
2017-Jun-12 01:30N 61°06' E 005°37'714.5
2017-Jun-12 01:00N 61°04' E 005°22'714.7
2017-Jun-12 00:30N 61°06' E 005°08'815.4
2017-Jun-12 00:00N 61°02' E 004°54'815.8
2017-Jun-11 23:29N 60°57' E 004°41'714.0
2017-Jun-11 23:00N 60°51' E 004°35'612.7
2017-Jun-11 22:30N 60°46' E 004°27'815.3
2017-Jun-11 21:59N 60°38' E 004°30'815.8
2017-Jun-11 21:30N 60°30' E 004°33'815.8
2017-Jun-11 21:00N 60°22' E 004°36'815.7
2017-Jun-11 20:30N 60°15' E 004°38'815.7
2017-Jun-11 20:00N 60°07' E 004°41'815.5
2017-Jun-11 19:30N 59°59' E 004°44'815.7
2017-Jun-11 19:00N 59°52' E 004°46'815.8
2017-Jun-11 18:30N 59°44' E 004°49'815.5
2017-Jun-11 18:00N 59°36' E 004°52'815.5
2017-Jun-11 17:30N 59°29' E 004°54'815.8
2017-Jun-11 17:00N 59°21' E 004°57'815.4
2017-Jun-11 16:30N 59°13' E 005°00'815.2
2017-Jun-11 16:00N 59°07' E 005°10'714.2
2017-Jun-11 15:30N 59°07' E 005°23'612.3
2017-Jun-11 15:00N 59°04' E 005°34'7 7.1
2017-Jun-11 13:59N 58°59' E 005°43'0 0.0
2017-Jun-11 13:29N 58°59' E 005°43'0 0.0
2017-Jun-11 12:59N 58°59' E 005°43'0 0.0
2017-Jun-11 12:29N 58°59' E 005°43'0 0.0
2017-Jun-11 11:59N 58°59' E 005°43'0 0.0
2017-Jun-11 11:29N 58°59' E 005°43'0 0.0
2017-Jun-11 10:59N 58°59' E 005°43'0 0.0
2017-Jun-11 10:29N 58°59' E 005°43'0 0.0
2017-Jun-11 09:59N 58°59' E 005°43'0 0.0
2017-Jun-11 09:29N 58°59' E 005°43'0 0.0
2017-Jun-11 08:59N 58°59' E 005°43'0 0.0
2017-Jun-11 08:29N 58°59' E 005°43'0 0.0
2017-Jun-11 07:59N 58°59' E 005°43'0 0.0
2017-Jun-11 07:29N 58°59' E 005°43'0 0.0
2017-Jun-11 06:59N 58°59' E 005°43'0 0.0
2017-Jun-11 06:29N 58°59' E 005°43'0 0.0
2017-Jun-11 05:59N 58°59' E 005°43'0 0.0
2017-Jun-11 05:29N 58°59' E 005°43'0 0.1
2017-Jun-11 05:00N 58°59' E 005°43'2 3.9
2017-Jun-11 04:30N 59°00' E 005°41'4 8.0
2017-Jun-11 04:00N 59°03' E 005°35'611.7
2017-Jun-11 03:30N 58°57' E 005°33'611.7
2017-Jun-11 03:00N 58°51' E 005°30'5 9.2
2017-Jun-11 02:30N 58°49' E 005°22'611.7
2017-Jun-11 02:00N 58°45' E 005°14'612.8
2017-Jun-11 01:30N 58°40' E 005°07'612.2
2017-Jun-11 01:00N 58°34' E 005°04'612.2
2017-Jun-11 00:30N 58°28' E 004°59'27711.7
2017-Jun-10 00:55N 54°25' E 001°00'2011.0
2017-Jun-09 23:07N 54°08' E 000°45'111.2
2017-Jun-09 23:00N 54°07' E 000°44'611.3
2017-Jun-09 22:29N 54°01' E 000°40'511.6
2017-Jun-09 22:01N 53°56' E 000°38'2910.0
2017-Jun-09 19:05N 53°35' E 000°03'114.8
2017-Jun-09 19:00N 53°35' E 000°01'714.1
2017-Jun-09 18:31N 53°38' W 000°09'5 9.9
2017-Jun-09 18:00N 53°42' W 000°14'3 5.8
2017-Jun-09 17:30N 53°44' W 000°16'0 0.1
2017-Jun-09 17:00N 53°44' W 000°16'0 0.3
2017-Jun-09 16:30N 53°45' W 000°16'0 0.4
2017-Jun-09 16:00N 53°45' W 000°16'0 0.0
2017-Jun-09 15:29N 53°45' W 000°16'0 0.0
2017-Jun-09 14:59N 53°45' W 000°16'0 0.0
2017-Jun-09 14:29N 53°45' W 000°16'0 0.0
2017-Jun-09 13:23N 53°45' W 000°16'0 0.0
2017-Jun-09 12:59N 53°45' W 000°16'0 0.0
2017-Jun-09 12:29N 53°45' W 000°16'0 0.0
2017-Jun-09 11:59N 53°45' W 000°16'0 0.0
2017-Jun-09 11:26N 53°45' W 000°16'0 0.0
2017-Jun-09 10:59N 53°45' W 000°16'0 0.0
2017-Jun-09 10:29N 53°45' W 000°16'0 0.0
2017-Jun-09 09:59N 53°45' W 000°16'0 0.0
2017-Jun-09 09:29N 53°45' W 000°16'0 0.0
2017-Jun-09 08:59N 53°45' W 000°16'0 0.0
2017-Jun-09 08:29N 53°45' W 000°16'0 0.0
2017-Jun-09 07:59N 53°45' W 000°16'0 0.0
2017-Jun-09 07:29N 53°45' W 000°16'0 0.0
2017-Jun-09 06:59N 53°45' W 000°16'0 0.0
2017-Jun-09 06:30N 53°45' W 000°16'0 0.5
2017-Jun-09 06:00N 53°45' W 000°16'0 0.4
2017-Jun-09 05:30N 53°44' W 000°16'0 0.7
2017-Jun-09 05:00N 53°44' W 000°16'510.7
2017-Jun-09 04:30N 53°39' W 000°12'713.1
2017-Jun-09 04:00N 53°36' W 000°03'  
Track history (hours):
 
Tides and Currents Weather Stations Pressure Air Temp Water Temp Dewpoint Dewpoint Depression Visibility Wind Speed Wind Dir Waves Ship Positions

Marco Polo

Operator: Orient Lines

Last reported at 2017-Jun-19 00:19 UTC. Time now 2017-Jun-26 17:18 UTC.
Position N 59°20' W 004°00'.

Type: Ship. MMSI: 308691456.

Date/timePositionNaut miles runAvg speedWind from/ knotsBaromVisibWave heightAir tempDewpointWater temp
2017-Jun-19 00:19N 59°20' W 004°00'516.0
2017-Jun-19 00:00N 59°16' W 003°56'816.2
2017-Jun-18 23:30N 59°09' W 003°48'816.3
2017-Jun-18 23:00N 59°01' W 003°41'816.4
2017-Jun-18 22:30N 58°54' W 003°34'816.7
2017-Jun-18 22:00N 58°47' W 003°25'917.9
2017-Jun-18 21:30N 58°43' W 003°10'918.3
2017-Jun-18 21:00N 58°37' W 002°56'5416.3
2017-Jun-18 17:40N 57°53' W 001°58'316.3
2017-Jun-18 17:30N 57°50' W 001°55'815.6
2017-Jun-18 17:00N 57°44' W 001°48'815.6
2017-Jun-18 16:30N 57°37' W 001°41'816.0
2017-Jun-18 16:00N 57°29' W 001°36'816.6
2017-Jun-18 15:30N 57°21' W 001°31'816.5
2017-Jun-18 15:00N 57°13' W 001°27'6817.1
2017-Jun-18 11:01N 56°08' W 000°53'3916.4
2017-Jun-18 08:38N 55°30' W 000°33'916.1
2017-Jun-18 08:05N 55°22' W 000°29'116.1
2017-Jun-18 08:00N 55°21' W 000°29'816.2
2017-Jun-18 07:30N 55°13' W 000°25'1716.3
2017-Jun-18 06:26N 54°56' W 000°16'716.5
2017-Jun-18 06:00N 54°49' W 000°13'816.6
2017-Jun-18 05:30N 54°41' W 000°09'816.9
2017-Jun-18 05:00N 54°33' W 000°04'917.1
2017-Jun-18 04:30N 54°25' W 000°01'917.3
2017-Jun-18 04:00N 54°17' E 000°03'917.3
2017-Jun-18 03:30N 54°08' E 000°07'917.2
2017-Jun-18 03:00N 54°00' E 000°12'917.1
2017-Jun-18 02:30N 53°52' E 000°17'1317.2
2017-Jun-18 01:45N 53°39' E 000°22'416.3
2017-Jun-18 01:30N 53°36' E 000°19'611.6
2017-Jun-18 00:59N 53°33' E 000°11'613.4
2017-Jun-18 00:30N 53°35' E 000°01'713.1
2017-Jun-18 00:00N 53°38' W 000°09'510.8
2017-Jun-17 23:31N 53°42' W 000°14'2 4.8
2017-Jun-17 23:00N 53°44' W 000°16'0 0.0
2017-Jun-17 22:30N 53°44' W 000°16'0 0.2
2017-Jun-17 22:00N 53°45' W 000°16'0 0.4
2017-Jun-17 21:30N 53°45' W 000°16'0 0.0
2017-Jun-17 21:00N 53°45' W 000°16'0 0.0
2017-Jun-17 20:30N 53°45' W 000°16'0 0.0
2017-Jun-17 20:00N 53°45' W 000°16'0 0.0
2017-Jun-17 19:30N 53°45' W 000°16'0 0.0
2017-Jun-17 19:00N 53°45' W 000°16'0 0.0
2017-Jun-17 18:27N 53°45' W 000°16'0 0.0
2017-Jun-17 18:00N 53°45' W 000°16'0 0.0
2017-Jun-17 17:30N 53°45' W 000°16'0 0.0
2017-Jun-17 17:00N 53°45' W 000°16'0 0.0
2017-Jun-17 16:30N 53°45' W 000°16'0 0.0
2017-Jun-17 16:00N 53°45' W 000°16'0 0.0
2017-Jun-17 15:30N 53°45' W 000°16'0 0.0
2017-Jun-17 15:00N 53°45' W 000°16'0 0.0
2017-Jun-17 14:30N 53°45' W 000°16'0 0.0
2017-Jun-17 13:30N 53°45' W 000°16'0 0.0
2017-Jun-17 13:00N 53°45' W 000°16'0 0.0
2017-Jun-17 12:30N 53°45' W 000°16'0 0.0
2017-Jun-17 12:00N 53°45' W 000°16'0 0.4
2017-Jun-17 11:30N 53°45' W 000°16'0 0.2
2017-Jun-17 11:00N 53°44' W 000°16'0 0.3
2017-Jun-17 10:30N 53°44' W 000°16'1 1.7
2017-Jun-17 10:00N 53°44' W 000°16'3 5.2
2017-Jun-17 09:30N 53°41' W 000°14'4 7.0
2017-Jun-17 09:00N 53°38' W 000°11'510.5
2017-Jun-17 08:30N 53°37' W 000°02'43 9.4
2017-Jun-17 03:55N 54°10' E 000°45'25910.8
2017-Jun-16 03:59N 58°13' E 003°29'10013.8
2017-Jun-15 20:44N 59°46' E 004°37'313.4
2017-Jun-15 20:30N 59°49' E 004°40'713.4
2017-Jun-15 19:59N 59°56' E 004°46'713.4
2017-Jun-15 19:30N 60°01' E 004°51'713.5
2017-Jun-15 19:00N 60°08' E 004°57'612.2
2017-Jun-15 18:29N 60°10' E 005°08'612.1
2017-Jun-15 18:00N 60°16' E 005°10'612.1
2017-Jun-15 17:30N 60°22' E 005°10'5 9.3
2017-Jun-15 17:00N 60°24' E 005°18'0 0.4
2017-Jun-15 16:28N 60°24' E 005°19'0 0.0
2017-Jun-15 15:58N 60°24' E 005°19'0 0.0
2017-Jun-15 15:28N 60°24' E 005°19'0 0.0
2017-Jun-15 14:58N 60°24' E 005°19'0 0.0
2017-Jun-15 14:28N 60°24' E 005°19'0 0.0
2017-Jun-15 13:28N 60°24' E 005°19'0 0.0
2017-Jun-15 12:58N 60°24' E 005°19'0 0.0
2017-Jun-15 12:28N 60°24' E 005°19'0 0.0
2017-Jun-15 11:58N 60°24' E 005°19'0 0.0
2017-Jun-15 11:28N 60°24' E 005°19'0 0.0
2017-Jun-15 10:58N 60°24' E 005°19'0 0.0
2017-Jun-15 10:28N 60°24' E 005°19'0 0.0
2017-Jun-15 09:58N 60°24' E 005°19'0 0.0
2017-Jun-15 09:25N 60°24' E 005°19'0 0.0
2017-Jun-15 08:58N 60°24' E 005°19'0 0.0
2017-Jun-15 08:28N 60°24' E 005°19'0 0.0
2017-Jun-15 07:58N 60°24' E 005°19'0 0.0
2017-Jun-15 07:28N 60°24' E 005°19'0 0.7
2017-Jun-15 07:00N 60°24' E 005°18'5 9.1
2017-Jun-15 06:30N 60°24' E 005°09'713.3
2017-Jun-15 06:00N 60°28' E 004°59'714.4
2017-Jun-15 05:30N 60°35' E 004°54'714.4
2017-Jun-15 05:00N 60°42' E 004°49'714.5
2017-Jun-15 04:30N 60°49' E 004°43'714.5
2017-Jun-15 04:00N 60°55' E 004°36'714.0
2017-Jun-15 03:29N 61°01' E 004°28'713.5
2017-Jun-15 02:59N 61°07' E 004°23'713.7
2017-Jun-15 02:30N 61°14' E 004°22'714.1
2017-Jun-15 02:00N 61°21' E 004°22'714.7
2017-Jun-15 01:30N 61°28' E 004°23'715.0
2017-Jun-15 01:00N 61°36' E 004°24'815.8
2017-Jun-15 00:28N 61°44' E 004°28'816.0
2017-Jun-15 00:00N 61°51' E 004°34'815.6
2017-Jun-14 23:30N 61°58' E 004°39'815.8
2017-Jun-14 23:00N 62°05' E 004°46'815.7
2017-Jun-14 22:30N 62°12' E 004°55'815.8
2017-Jun-14 22:00N 62°18' E 005°06'815.7
2017-Jun-14 21:30N 62°24' E 005°17'815.9
2017-Jun-14 21:00N 62°28' E 005°32'714.9
2017-Jun-14 20:30N 62°29' E 005°48'714.5
2017-Jun-14 20:00N 62°28' E 006°04'611.3
2017-Jun-14 19:30N 62°33' E 006°09'611.4
2017-Jun-14 19:00N 62°39' E 006°10'714.0
2017-Jun-14 18:29N 62°38' E 006°25'815.5
2017-Jun-14 18:00N 62°39' E 006°41'816.5
2017-Jun-14 17:30N 62°42' E 006°58'816.4
2017-Jun-14 17:00N 62°38' E 007°15'1214.2
2017-Jun-14 16:07N 62°34' E 007°40'1 0.1
2017-Jun-14 06:11N 62°34' E 007°42'8 7.2
2017-Jun-14 05:04N 62°36' E 007°24'116.3
2017-Jun-14 05:00N 62°36' E 007°23'816.3
2017-Jun-14 04:30N 62°41' E 007°08'3 6.2
2017-Jun-14 04:00N 62°43' E 007°04'2 4.4
2017-Jun-14 03:30N 62°42' E 007°00'713.5
2017-Jun-14 03:00N 62°40' E 006°46'714.8
2017-Jun-14 02:29N 62°38' E 006°30'714.3
2017-Jun-14 02:00N 62°37' E 006°15'612.4
2017-Jun-14 01:30N 62°38' E 006°01'612.4
2017-Jun-14 01:00N 62°35' E 005°49'713.8
2017-Jun-14 00:30N 62°30' E 005°38'714.3
2017-Jun-14 00:00N 62°27' E 005°25'714.5
2017-Jun-13 23:30N 62°22' E 005°13'714.7
2017-Jun-13 23:00N 62°17' E 005°02'714.4
2017-Jun-13 22:29N 62°10' E 004°55'714.3
2017-Jun-13 21:59N 62°04' E 004°48'613.2
2017-Jun-13 21:30N 61°58' E 004°55'713.6
2017-Jun-13 21:00N 61°55' E 005°07'712.9
2017-Jun-13 20:29N 61°54' E 005°21'613.2
2017-Jun-13 20:00N 61°55' E 005°35'713.4
2017-Jun-13 19:28N 61°51' E 005°48'0 0.0
2017-Jun-13 03:56N 61°51' E 005°48'612.7
2017-Jun-13 03:30N 61°54' E 005°38'613.0
2017-Jun-13 03:00N 61°55' E 005°25'712.8
2017-Jun-13 02:30N 61°53' E 005°11'4 7.1
2017-Jun-13 02:00N 61°51' E 005°16'611.4
2017-Jun-13 01:30N 61°48' E 005°05'612.6
2017-Jun-13 01:00N 61°44' E 004°55'612.3
2017-Jun-13 00:30N 61°38' E 004°59'5 9.2
2017-Jun-13 00:00N 61°33' E 005°00'612.4
2017-Jun-12 23:30N 61°27' E 004°56'714.3
2017-Jun-12 23:00N 61°21' E 004°48'613.0
2017-Jun-12 22:30N 61°15' E 004°53'713.9
2017-Jun-12 22:00N 61°10' E 005°03'714.0
2017-Jun-12 21:30N 61°06' E 005°14'613.2
2017-Jun-12 21:00N 61°04' E 005°27'713.8
2017-Jun-12 20:30N 61°07' E 005°40'713.3
2017-Jun-12 20:00N 61°08' E 005°53'713.3
2017-Jun-12 19:30N 61°08' E 006°07'713.0
2017-Jun-12 19:00N 61°06' E 006°20'612.3
2017-Jun-12 18:30N 61°08' E 006°33'611.5
2017-Jun-12 18:00N 61°10' E 006°43'713.4
2017-Jun-12 17:30N 61°07' E 006°56'612.8
2017-Jun-12 17:00N 61°01' E 007°02'612.1
2017-Jun-12 16:30N 60°56' E 007°09'5 9.4
2017-Jun-12 15:59N 60°52' E 007°07'0 0.0
2017-Jun-12 15:28N 60°52' E 007°07'0 0.0
2017-Jun-12 14:58N 60°52' E 007°07'0 0.0
2017-Jun-12 13:58N 60°52' E 007°07'0 0.0
2017-Jun-12 13:28N 60°52' E 007°07'0 0.0
2017-Jun-12 12:58N 60°52' E 007°07'0 0.0
2017-Jun-12 12:28N 60°52' E 007°07'0 0.0
2017-Jun-12 11:58N 60°52' E 007°07'0 0.0
2017-Jun-12 11:28N 60°52' E 007°07'0 0.0
2017-Jun-12 10:58N 60°52' E 007°07'0 0.0
2017-Jun-12 10:28N 60°52' E 007°07'0 0.0
2017-Jun-12 09:58N 60°52' E 007°07'0 0.0
2017-Jun-12 09:28N 60°52' E 007°07'0 0.0
2017-Jun-12 08:58N 60°52' E 007°07'0 0.0
2017-Jun-12 08:28N 60°52' E 007°07'0 0.0
2017-Jun-12 07:58N 60°52' E 007°07'0 0.0
2017-Jun-12 07:28N 60°52' E 007°07'0 0.0
2017-Jun-12 06:58N 60°52' E 007°07'0 0.1
2017-Jun-12 06:30N 60°52' E 007°07'1 2.2
2017-Jun-12 06:00N 60°53' E 007°08'4 8.4
2017-Jun-12 05:30N 60°57' E 007°08'611.8
2017-Jun-12 05:00N 61°02' E 007°02'612.7
2017-Jun-12 04:30N 61°07' E 006°54'712.8
2017-Jun-12 03:59N 61°10' E 006°42'510.8
2017-Jun-12 03:30N 61°08' E 006°33'612.5
2017-Jun-12 03:01N 61°06' E 006°20'713.9
2017-Jun-12 02:30N 61°08' E 006°06'714.7
2017-Jun-12 02:00N 61°08' E 005°51'714.5
2017-Jun-12 01:30N 61°06' E 005°37'714.5
2017-Jun-12 01:00N 61°04' E 005°22'714.7
2017-Jun-12 00:30N 61°06' E 005°08'815.4
2017-Jun-12 00:00N 61°02' E 004°54'815.8
2017-Jun-11 23:29N 60°57' E 004°41'714.0
2017-Jun-11 23:00N 60°51' E 004°35'612.7
2017-Jun-11 22:30N 60°46' E 004°27'815.3
2017-Jun-11 21:59N 60°38' E 004°30'815.8
2017-Jun-11 21:30N 60°30' E 004°33'815.8
2017-Jun-11 21:00N 60°22' E 004°36'815.7
2017-Jun-11 20:30N 60°15' E 004°38'815.7
2017-Jun-11 20:00N 60°07' E 004°41'815.5
2017-Jun-11 19:30N 59°59' E 004°44'815.7
2017-Jun-11 19:00N 59°52' E 004°46'815.8
2017-Jun-11 18:30N 59°44' E 004°49'815.5
2017-Jun-11 18:00N 59°36' E 004°52'815.5
2017-Jun-11 17:30N 59°29' E 004°54'815.8
2017-Jun-11 17:00N 59°21' E 004°57'815.4
2017-Jun-11 16:30N 59°13' E 005°00'815.2
2017-Jun-11 16:00N 59°07' E 005°10'714.2
2017-Jun-11 15:30N 59°07' E 005°23'612.3
2017-Jun-11 15:00N 59°04' E 005°34'7 7.1
2017-Jun-11 13:59N 58°59' E 005°43'0 0.0
2017-Jun-11 13:29N 58°59' E 005°43'0 0.0
2017-Jun-11 12:59N 58°59' E 005°43'0 0.0
2017-Jun-11 12:29N 58°59' E 005°43'0 0.0
2017-Jun-11 11:59N 58°59' E 005°43'0 0.0
2017-Jun-11 11:29N 58°59' E 005°43'0 0.0
2017-Jun-11 10:59N 58°59' E 005°43'0 0.0
2017-Jun-11 10:29N 58°59' E 005°43'0 0.0
2017-Jun-11 09:59N 58°59' E 005°43'0 0.0
2017-Jun-11 09:29N 58°59' E 005°43'0 0.0
2017-Jun-11 08:59N 58°59' E 005°43'0 0.0
2017-Jun-11 08:29N 58°59' E 005°43'0 0.0
2017-Jun-11 07:59N 58°59' E 005°43'0 0.0
2017-Jun-11 07:29N 58°59' E 005°43'0 0.0
2017-Jun-11 06:59N 58°59' E 005°43'0 0.0
2017-Jun-11 06:29N 58°59' E 005°43'0 0.0
2017-Jun-11 05:59N 58°59' E 005°43'0 0.0
2017-Jun-11 05:29N 58°59' E 005°43'0 0.1
2017-Jun-11 05:00N 58°59' E 005°43'2 3.9
2017-Jun-11 04:30N 59°00' E 005°41'4 8.0
2017-Jun-11 04:00N 59°03' E 005°35'611.7
2017-Jun-11 03:30N 58°57' E 005°33'611.7
2017-Jun-11 03:00N 58°51' E 005°30'5 9.2
2017-Jun-11 02:30N 58°49' E 005°22'611.7
2017-Jun-11 02:00N 58°45' E 005°14'612.8
2017-Jun-11 01:30N 58°40' E 005°07'612.2
2017-Jun-11 01:00N 58°34' E 005°04'612.2
2017-Jun-11 00:30N 58°28' E 004°59'27711.7
2017-Jun-10 00:55N 54°25' E 001°00'2011.0
2017-Jun-09 23:07N 54°08' E 000°45'111.2
2017-Jun-09 23:00N 54°07' E 000°44'611.3
2017-Jun-09 22:29N 54°01' E 000°40'511.6
2017-Jun-09 22:01N 53°56' E 000°38'2910.0
2017-Jun-09 19:05N 53°35' E 000°03'114.8
2017-Jun-09 19:00N 53°35' E 000°01'714.1
2017-Jun-09 18:31N 53°38' W 000°09'5 9.9
2017-Jun-09 18:00N 53°42' W 000°14'3 5.8
2017-Jun-09 17:30N 53°44' W 000°16'0 0.1
2017-Jun-09 17:00N 53°44' W 000°16'0 0.3
2017-Jun-09 16:30N 53°45' W 000°16'0 0.4
2017-Jun-09 16:00N 53°45' W 000°16'0 0.0
2017-Jun-09 15:29N 53°45' W 000°16'0 0.0
2017-Jun-09 14:59N 53°45' W 000°16'0 0.0
2017-Jun-09 14:29N 53°45' W 000°16'0 0.0
2017-Jun-09 13:23N 53°45' W 000°16'0 0.0
2017-Jun-09 12:59N 53°45' W 000°16'0 0.0
2017-Jun-09 12:29N 53°45' W 000°16'0 0.0
2017-Jun-09 11:59N 53°45' W 000°16'0 0.0
2017-Jun-09 11:26N 53°45' W 000°16'0 0.0
2017-Jun-09 10:59N 53°45' W 000°16'0 0.0
2017-Jun-09 10:29N 53°45' W 000°16'0 0.0
2017-Jun-09 09:59N 53°45' W 000°16'0 0.0
2017-Jun-09 09:29N 53°45' W 000°16'0 0.0
2017-Jun-09 08:59N 53°45' W 000°16'0 0.0
2017-Jun-09 08:29N 53°45' W 000°16'0 0.0
2017-Jun-09 07:59N 53°45' W 000°16'0 0.0
2017-Jun-09 07:29N 53°45' W 000°16'0 0.0
2017-Jun-09 06:59N 53°45' W 000°16'0 0.0
2017-Jun-09 06:30N 53°45' W 000°16'0 0.5
2017-Jun-09 06:00N 53°45' W 000°16'0 0.4
2017-Jun-09 05:30N 53°44' W 000°16'0 0.7
2017-Jun-09 05:00N 53°44' W 000°16'510.7
2017-Jun-09 04:30N 53°39' W 000°12'713.1
2017-Jun-09 04:00N 53°36' W 000°03'  

Dump ship's entire track history